createdAt,value
2022-09-23T00:01:03.260Z,13.28
2022-09-23T00:03:31.700Z,13.29
2022-09-23T00:06:03.544Z,13.30
2022-09-23T00:08:30.815Z,13.32
2022-09-23T00:10:57.980Z,13.32
2022-09-23T00:13:25.341Z,13.34
2022-09-23T00:15:52.591Z,13.37
2022-09-23T00:18:20.528Z,13.37
2022-09-23T00:20:47.590Z,13.38
2022-09-23T00:23:13.940Z,13.39
2022-09-23T00:25:40.333Z,13.40
2022-09-23T00:28:06.703Z,13.41
2022-09-23T00:30:33.209Z,13.45
2022-09-23T00:33:00.180Z,13.47
2022-09-23T00:35:26.588Z,13.48
2022-09-23T00:37:52.960Z,13.51
2022-09-23T00:40:19.438Z,13.52
2022-09-23T00:42:48.262Z,13.53
2022-09-23T00:45:15.786Z,13.49
2022-09-23T00:47:54.650Z,13.48
2022-09-23T00:50:31.269Z,13.49
2022-09-23T00:53:00.354Z,13.48
2022-09-23T00:55:30.260Z,13.45
2022-09-23T00:58:00.153Z,13.42
2022-09-23T01:00:27.038Z,13.43
2022-09-23T01:02:54.259Z,13.42
2022-09-23T01:05:21.033Z,13.43
2022-09-23T01:07:48.129Z,13.42
2022-09-23T01:10:18.467Z,13.39
2022-09-23T01:13:00.130Z,13.39
2022-09-23T01:15:45.294Z,13.41
2022-09-23T01:18:32.736Z,13.42
2022-09-23T01:21:17.162Z,13.41
2022-09-23T01:24:21.247Z,13.41
2022-09-23T01:26:59.005Z,13.35
2022-09-23T01:29:50.182Z,13.36
2022-09-23T01:32:42.407Z,13.33
2022-09-23T01:35:27.175Z,13.31
2022-09-23T01:38:18.050Z,13.29
2022-09-23T01:41:12.385Z,13.29
2022-09-23T01:44:02.184Z,13.30
2022-09-23T01:46:37.793Z,13.27
2022-09-23T01:49:12.066Z,13.26
2022-09-23T01:51:45.459Z,13.27
2022-09-23T01:54:34.014Z,13.27
2022-09-23T01:57:28.768Z,13.27
2022-09-23T02:00:04.317Z,13.27
2022-09-23T02:02:44.189Z,13.27
2022-09-23T02:05:21.189Z,13.26
2022-09-23T02:07:59.768Z,13.25
2022-09-23T02:10:33.893Z,13.23
2022-09-23T02:13:07.323Z,13.22
2022-09-23T02:15:49.571Z,13.22
2022-09-23T02:18:21.806Z,13.23
2022-09-23T02:20:53.471Z,13.25
2022-09-23T02:23:27.504Z,13.22
2022-09-23T02:26:19.806Z,13.23
2022-09-23T02:29:16.561Z,13.21
2022-09-23T02:31:53.594Z,13.20
2022-09-23T02:34:34.921Z,13.19
2022-09-23T02:37:17.018Z,13.15
2022-09-23T02:40:05.225Z,13.16
2022-09-23T02:42:47.962Z,13.15
2022-09-23T02:45:14.862Z,13.14
2022-09-23T02:47:47.182Z,13.12
2022-09-23T02:50:13.792Z,13.11
2022-09-23T02:52:40.223Z,13.10
2022-09-23T02:55:11.791Z,13.09
2022-09-23T02:57:38.642Z,13.05
2022-09-23T03:00:05.814Z,13.06
2022-09-23T03:02:52.046Z,13.04
2022-09-23T03:05:24.624Z,13.02
2022-09-23T03:08:09.765Z,13.00
2022-09-23T03:10:36.088Z,12.98
2022-09-23T03:13:15.185Z,12.96
2022-09-23T03:15:57.173Z,12.97
2022-09-23T03:18:37.051Z,12.96
2022-09-23T03:21:09.642Z,12.97
2022-09-23T03:23:40.322Z,12.96
2022-09-23T03:26:19.102Z,12.96
2022-09-23T03:28:46.884Z,12.92
2022-09-23T03:31:15.161Z,12.91
2022-09-23T03:33:46.790Z,12.90
2022-09-23T03:36:34.849Z,12.91
2022-09-23T03:39:08.485Z,12.89
2022-09-23T03:41:45.012Z,12.85
2022-09-23T03:44:11.962Z,12.81
2022-09-23T03:46:38.433Z,12.81
2022-09-23T03:49:16.882Z,12.81
2022-09-23T03:51:44.750Z,12.80
2022-09-23T03:54:11.706Z,12.81
2022-09-23T03:56:38.056Z,12.81
2022-09-23T03:59:04.468Z,12.80
2022-09-23T04:01:30.901Z,12.82
2022-09-23T04:03:57.276Z,12.82
2022-09-23T04:06:23.641Z,12.81
2022-09-23T04:08:50.434Z,12.83
2022-09-23T04:11:16.938Z,12.86
2022-09-23T04:13:43.273Z,12.87
2022-09-23T04:16:09.698Z,12.88
2022-09-23T04:18:36.145Z,12.91
2022-09-23T04:21:02.577Z,12.91
2022-09-23T04:23:28.938Z,12.89
2022-09-23T04:25:55.381Z,12.91
2022-09-23T04:28:22.455Z,12.94
2022-09-23T04:30:49.331Z,12.94
2022-09-23T04:33:16.500Z,12.96
2022-09-23T04:35:43.398Z,12.96
2022-09-23T04:38:12.374Z,12.95
2022-09-23T04:40:39.190Z,12.94
2022-09-23T04:43:05.889Z,12.94
2022-09-23T04:45:32.365Z,12.91
2022-09-23T04:47:59.230Z,12.90
2022-09-23T04:50:26.528Z,12.91
2022-09-23T04:52:53.941Z,12.93
2022-09-23T04:55:21.407Z,12.92
2022-09-23T04:57:48.078Z,12.92
2022-09-23T05:00:15.305Z,12.92
2022-09-23T05:02:50.337Z,12.92
2022-09-23T05:05:21.034Z,12.92
2022-09-23T05:07:48.369Z,12.92
2022-09-23T05:10:15.702Z,12.92
2022-09-23T05:12:42.105Z,12.93
2022-09-23T05:15:08.653Z,12.91
2022-09-23T05:17:37.129Z,12.91
2022-09-23T05:20:04.764Z,12.86
2022-09-23T05:22:31.389Z,12.83
2022-09-23T05:24:59.733Z,12.86
2022-09-23T05:27:26.094Z,12.88
2022-09-23T05:29:52.978Z,12.90
2022-09-23T05:32:20.187Z,12.93
2022-09-23T05:34:46.677Z,12.94
2022-09-23T05:37:13.110Z,12.94
2022-09-23T05:39:39.530Z,12.93
2022-09-23T05:42:06.150Z,12.93
2022-09-23T05:44:32.550Z,12.95
2022-09-23T05:46:59.101Z,12.96
2022-09-23T05:49:37.935Z,12.96
2022-09-23T05:52:11.883Z,12.95
2022-09-23T05:54:38.441Z,12.94
2022-09-23T05:57:06.004Z,12.95
2022-09-23T05:59:32.689Z,12.96
2022-09-23T06:01:59.814Z,12.99
2022-09-23T06:04:26.252Z,13.01
2022-09-23T06:06:53.062Z,13.03
2022-09-23T06:09:19.420Z,13.00
2022-09-23T06:11:46.700Z,13.03
2022-09-23T06:14:14.656Z,13.05
2022-09-23T06:16:41.229Z,13.06
2022-09-23T06:19:07.694Z,13.08
2022-09-23T06:21:36.552Z,13.09
2022-09-23T06:24:03.465Z,13.08
2022-09-23T06:26:33.502Z,13.14
2022-09-23T06:29:01.775Z,13.17
2022-09-23T06:31:29.106Z,13.17
2022-09-23T06:34:05.493Z,13.18
2022-09-23T06:36:43.469Z,13.16
2022-09-23T06:39:11.428Z,13.14
2022-09-23T06:41:38.255Z,13.14
2022-09-23T06:44:09.724Z,13.18
2022-09-23T06:46:36.816Z,13.19
2022-09-23T06:49:03.718Z,13.22
2022-09-23T06:51:30.450Z,13.22
2022-09-23T06:53:56.822Z,13.26
2022-09-23T06:56:23.616Z,13.28
2022-09-23T06:58:52.139Z,13.30
2022-09-23T07:01:19.763Z,13.32
2022-09-23T07:03:48.091Z,13.33
2022-09-23T07:06:15.022Z,13.33
2022-09-23T07:08:44.738Z,13.33
2022-09-23T07:11:12.974Z,13.34
2022-09-23T07:13:41.258Z,13.39
2022-09-23T07:16:08.893Z,13.41
2022-09-23T07:18:37.264Z,13.43
2022-09-23T07:21:15.678Z,13.46
2022-09-23T07:23:44.035Z,13.52
2022-09-23T07:26:10.417Z,13.56
2022-09-23T07:28:37.255Z,13.59
2022-09-23T07:31:15.824Z,13.63
2022-09-23T07:33:46.492Z,13.66
2022-09-23T07:36:19.129Z,13.68
2022-09-23T07:38:47.267Z,13.70
2022-09-23T07:41:16.960Z,13.71
2022-09-23T07:43:44.770Z,13.71
2022-09-23T07:46:14.976Z,13.76
2022-09-23T07:48:41.951Z,13.78
2022-09-23T07:51:17.302Z,13.83
2022-09-23T07:53:49.885Z,13.85
2022-09-23T07:56:18.919Z,13.85
2022-09-23T07:58:46.730Z,13.88
2022-09-23T08:01:13.618Z,13.94
2022-09-23T08:03:40.041Z,13.97
2022-09-23T08:06:13.057Z,14.03
2022-09-23T08:08:43.492Z,14.08
2022-09-23T08:11:13.085Z,14.14
2022-09-23T08:13:40.128Z,14.20
2022-09-23T08:16:06.711Z,14.25
2022-09-23T08:18:33.503Z,14.27
2022-09-23T08:21:00.128Z,14.26
2022-09-23T08:23:26.662Z,14.29
2022-09-23T08:26:01.544Z,14.31
2022-09-23T08:28:28.169Z,14.35
2022-09-23T08:30:55.270Z,14.35
2022-09-23T08:33:23.485Z,14.39
2022-09-23T08:35:50.981Z,14.42
2022-09-23T08:38:18.157Z,14.43
2022-09-23T08:40:49.382Z,14.44
2022-09-23T08:43:30.910Z,14.44
2022-09-23T08:46:02.510Z,14.44
2022-09-23T08:48:33.294Z,14.45
2022-09-23T08:51:06.233Z,14.49
2022-09-23T08:53:38.170Z,14.47
2022-09-23T08:56:14.289Z,14.49
2022-09-23T08:59:13.251Z,14.53
2022-09-23T09:01:40.326Z,14.56
2022-09-23T09:04:27.972Z,14.59
2022-09-23T09:07:35.747Z,14.64
2022-09-23T09:10:20.428Z,14.66
2022-09-23T09:13:07.473Z,14.68
2022-09-23T09:15:44.560Z,14.69
2022-09-23T09:18:31.777Z,14.69
2022-09-23T09:21:12.472Z,14.69
2022-09-23T09:24:02.423Z,14.72
2022-09-23T09:26:32.616Z,14.73
2022-09-23T09:29:30.728Z,14.74
2022-09-23T09:31:57.501Z,14.75
2022-09-23T09:34:27.743Z,14.77
2022-09-23T09:37:04.663Z,14.76
2022-09-23T09:39:35.086Z,14.76
2022-09-23T09:42:02.642Z,14.76
2022-09-23T09:45:19.707Z,14.80
2022-09-23T09:47:56.643Z,14.83
2022-09-23T09:50:41.305Z,14.86
2022-09-23T09:53:36.799Z,14.92
2022-09-23T09:56:12.784Z,14.99
2022-09-23T09:59:00.717Z,15.03
2022-09-23T10:01:28.825Z,15.06
2022-09-23T10:03:59.571Z,15.05
2022-09-23T10:06:28.925Z,15.07
2022-09-23T10:09:01.596Z,15.07
2022-09-23T10:11:32.452Z,15.07
2022-09-23T10:14:19.409Z,15.13
2022-09-23T10:16:48.756Z,15.15
2022-09-23T10:19:29.242Z,15.16
2022-09-23T10:22:00.124Z,15.15
2022-09-23T10:24:30.411Z,15.14
2022-09-23T10:27:03.192Z,15.16
2022-09-23T10:30:00.701Z,15.16
2022-09-23T10:32:31.620Z,15.19
2022-09-23T10:35:08.833Z,15.21
2022-09-23T10:37:41.858Z,15.20
2022-09-23T10:40:44.137Z,15.22
2022-09-23T10:43:45.650Z,15.25
2022-09-23T10:46:45.838Z,15.30
2022-09-23T10:49:37.192Z,15.31
2022-09-23T10:52:22.181Z,15.31
2022-09-23T10:55:27.120Z,15.34
2022-09-23T10:58:14.073Z,15.40
2022-09-23T11:00:52.174Z,15.41
2022-09-23T11:03:54.378Z,15.44
2022-09-23T11:06:32.917Z,15.48
2022-09-23T11:09:33.347Z,15.50
2022-09-23T11:12:18.022Z,15.51
2022-09-23T11:14:59.984Z,15.50
2022-09-23T11:17:40.704Z,15.52
2022-09-23T11:20:35.887Z,15.55
2022-09-23T11:23:24.687Z,15.53
2022-09-23T11:26:19.470Z,15.52
2022-09-23T11:29:16.726Z,15.52
2022-09-23T11:32:01.548Z,15.53
2022-09-23T11:34:52.562Z,15.57
2022-09-23T11:37:27.588Z,15.61
2022-09-23T11:40:15.107Z,15.63
2022-09-23T11:42:55.049Z,15.65
2022-09-23T11:45:28.958Z,15.68
2022-09-23T11:48:00.382Z,15.69
2022-09-23T11:50:33.949Z,15.74
2022-09-23T11:53:25.540Z,15.82
2022-09-23T11:56:00.621Z,15.89
2022-09-23T11:58:33.104Z,15.97
2022-09-23T12:01:09.309Z,16.04
2022-09-23T12:03:51.907Z,16.09
2022-09-23T12:06:26.773Z,16.17
2022-09-23T12:09:01.987Z,16.23
2022-09-23T12:11:49.446Z,16.27
2022-09-23T12:14:40.839Z,16.29
2022-09-23T12:17:15.195Z,16.30
2022-09-23T12:19:58.375Z,16.31
2022-09-23T12:22:55.899Z,16.30
2022-09-23T12:25:46.482Z,16.30
2022-09-23T12:28:37.624Z,16.29
2022-09-23T12:31:11.708Z,16.32
2022-09-23T12:33:38.610Z,16.34
2022-09-23T12:36:12.180Z,16.33
2022-09-23T12:38:46.856Z,16.32
2022-09-23T12:41:37.503Z,16.38
2022-09-23T12:44:23.166Z,16.40
2022-09-23T12:47:24.950Z,16.40
2022-09-23T12:49:53.069Z,16.36
2022-09-23T12:52:20.405Z,16.37
2022-09-23T12:54:49.238Z,16.37
2022-09-23T12:57:33.880Z,16.35
2022-09-23T13:00:06.441Z,16.38
2022-09-23T13:02:32.846Z,16.39
2022-09-23T13:05:27.319Z,16.44
2022-09-23T13:08:05.228Z,16.47
2022-09-23T13:10:43.082Z,16.45
2022-09-23T13:13:23.470Z,16.49
2022-09-23T13:15:50.361Z,16.53
2022-09-23T13:18:22.590Z,16.55
2022-09-23T13:20:53.924Z,16.60
2022-09-23T13:23:28.463Z,16.68
2022-09-23T13:26:01.466Z,16.72
2022-09-23T13:28:53.434Z,16.78
2022-09-23T13:31:21.039Z,16.83
2022-09-23T13:33:52.926Z,16.87
2022-09-23T13:36:20.087Z,16.87
2022-09-23T13:38:47.024Z,16.88
2022-09-23T13:41:17.674Z,16.88
2022-09-23T13:43:49.130Z,16.89
2022-09-23T13:46:21.539Z,16.85
2022-09-23T13:48:51.708Z,16.79
2022-09-23T13:51:32.950Z,16.79
2022-09-23T13:54:01.787Z,16.80
2022-09-23T13:56:31.174Z,16.81
2022-09-23T13:59:25.764Z,16.84
2022-09-23T14:02:10.655Z,16.82
2022-09-23T14:04:37.701Z,16.80
2022-09-23T14:07:04.703Z,16.81
2022-09-23T14:09:31.650Z,16.84
2022-09-23T14:12:00.558Z,16.85
2022-09-23T14:14:29.905Z,16.86
2022-09-23T14:16:58.262Z,16.84
2022-09-23T14:19:25.939Z,16.86
2022-09-23T14:21:56.304Z,16.87
2022-09-23T14:24:30.178Z,16.87
2022-09-23T14:27:00.411Z,16.86
2022-09-23T14:29:39.351Z,16.88
2022-09-23T14:32:20.880Z,16.90
2022-09-23T14:34:50.158Z,16.91
2022-09-23T14:37:52.160Z,16.92
2022-09-23T14:40:28.920Z,16.94
2022-09-23T14:42:55.461Z,16.95
2022-09-23T14:45:25.607Z,16.91
2022-09-23T14:47:58.451Z,16.91
2022-09-23T14:50:39.948Z,16.92
2022-09-23T14:53:32.393Z,16.92
2022-09-23T14:56:07.607Z,16.89
2022-09-23T14:59:03.443Z,16.90
2022-09-23T15:01:38.794Z,16.92
2022-09-23T15:04:23.533Z,16.91
2022-09-23T15:06:55.033Z,16.90
2022-09-23T15:09:25.982Z,16.89
2022-09-23T15:12:06.639Z,16.89
2022-09-23T15:14:41.075Z,16.92
2022-09-23T15:17:31.724Z,16.93
2022-09-23T15:20:08.902Z,16.92
2022-09-23T15:22:46.066Z,16.89
2022-09-23T15:25:17.353Z,16.89
2022-09-23T15:27:58.331Z,16.89
2022-09-23T15:30:24.955Z,16.89
2022-09-23T15:32:51.506Z,16.88
2022-09-23T15:35:20.931Z,16.88
2022-09-23T15:37:49.965Z,16.90
2022-09-23T15:40:25.715Z,16.91
2022-09-23T15:42:58.300Z,16.89
2022-09-23T15:45:42.896Z,16.90
2022-09-23T15:48:14.800Z,16.89
2022-09-23T15:50:42.407Z,16.86
2022-09-23T15:53:15.170Z,16.79
2022-09-23T15:55:41.558Z,16.78
2022-09-23T15:58:07.956Z,16.79
2022-09-23T16:00:37.634Z,16.75
2022-09-23T16:03:06.523Z,16.75
2022-09-23T16:05:37.704Z,16.74
2022-09-23T16:08:09.033Z,16.75
2022-09-23T16:10:36.781Z,16.74
2022-09-23T16:13:06.217Z,16.73
2022-09-23T16:15:32.888Z,16.72
2022-09-23T16:18:00.215Z,16.71
2022-09-23T16:20:29.667Z,16.69
2022-09-23T16:23:01.119Z,16.68
2022-09-23T16:25:31.391Z,16.69
2022-09-23T16:27:58.506Z,16.71
2022-09-23T16:30:29.340Z,16.71
2022-09-23T16:32:56.313Z,16.68
2022-09-23T16:35:25.551Z,16.69
2022-09-23T16:37:52.786Z,16.71
2022-09-23T16:40:21.465Z,16.71
2022-09-23T16:42:49.846Z,16.71
2022-09-23T16:45:18.089Z,16.71
2022-09-23T16:47:46.639Z,16.69
2022-09-23T16:50:15.042Z,16.68
2022-09-23T16:52:41.950Z,16.64
2022-09-23T16:55:10.534Z,16.61
2022-09-23T16:57:38.513Z,16.54
2022-09-23T17:00:27.259Z,16.51
2022-09-23T17:03:12.304Z,16.47
2022-09-23T17:05:38.696Z,16.42
2022-09-23T17:08:05.556Z,16.40
2022-09-23T17:10:32.918Z,16.40
2022-09-23T17:13:00.437Z,16.32
2022-09-23T17:15:26.873Z,16.26
2022-09-23T17:17:53.270Z,16.24
2022-09-23T17:20:20.004Z,16.20
2022-09-23T17:22:46.477Z,16.20
2022-09-23T17:25:12.853Z,16.21
2022-09-23T17:27:39.235Z,16.22
2022-09-23T17:30:06.199Z,16.21
2022-09-23T17:32:32.557Z,16.19
2022-09-23T17:35:04.323Z,16.17
2022-09-23T17:37:32.114Z,16.16
2022-09-23T17:39:59.501Z,16.16
2022-09-23T17:42:26.060Z,16.15
2022-09-23T17:44:52.452Z,16.13
2022-09-23T17:47:18.782Z,16.09
2022-09-23T17:49:47.432Z,16.07
2022-09-23T17:52:13.795Z,16.05
2022-09-23T17:54:40.148Z,16.06
2022-09-23T17:57:06.558Z,16.06
2022-09-23T17:59:32.957Z,16.06
2022-09-23T18:01:59.530Z,16.08
2022-09-23T18:04:26.090Z,16.08
2022-09-23T18:06:52.480Z,16.08
2022-09-23T18:09:19.357Z,16.07
2022-09-23T18:11:46.570Z,16.06
2022-09-23T18:14:21.058Z,16.06
2022-09-23T18:16:52.933Z,16.06
2022-09-23T18:19:22.001Z,16.04
2022-09-23T18:21:54.396Z,16.05
2022-09-23T18:24:31.882Z,16.05
2022-09-23T18:26:59.715Z,16.04
2022-09-23T18:29:26.370Z,16.03
2022-09-23T18:31:52.934Z,16.02
2022-09-23T18:34:20.046Z,16.02
2022-09-23T18:36:46.623Z,15.98
2022-09-23T18:39:13.004Z,15.97
2022-09-23T18:41:39.394Z,15.96
2022-09-23T18:44:05.899Z,15.96
2022-09-23T18:46:32.512Z,15.95
2022-09-23T18:49:18.178Z,15.97
2022-09-23T18:51:55.709Z,15.96
2022-09-23T18:54:28.482Z,15.94
2022-09-23T18:56:55.374Z,15.95
2022-09-23T18:59:25.767Z,15.96
2022-09-23T19:01:54.703Z,15.95
2022-09-23T19:04:22.269Z,15.95
2022-09-23T19:06:49.834Z,15.95
2022-09-23T19:09:17.744Z,15.97
2022-09-23T19:11:44.635Z,15.95
2022-09-23T19:14:12.281Z,15.94
2022-09-23T19:16:40.531Z,15.96
2022-09-23T19:19:07.415Z,15.94
2022-09-23T19:21:34.683Z,15.94
2022-09-23T19:24:07.183Z,15.95
2022-09-23T19:26:39.598Z,15.96
2022-09-23T19:29:12.381Z,15.92
2022-09-23T19:31:39.893Z,15.93
2022-09-23T19:34:11.625Z,15.96
2022-09-23T19:36:40.520Z,15.96
2022-09-23T19:39:11.782Z,15.95
2022-09-23T19:41:38.308Z,15.85
2022-09-23T19:44:07.135Z,15.82
2022-09-23T19:46:39.054Z,15.78
2022-09-23T19:49:07.030Z,15.70
2022-09-23T19:51:34.597Z,15.66
2022-09-23T19:54:02.074Z,15.65
2022-09-23T19:56:29.540Z,15.56
2022-09-23T19:58:57.058Z,15.51
2022-09-23T20:01:25.032Z,15.52
2022-09-23T20:03:51.490Z,15.48
2022-09-23T20:06:18.095Z,15.49
2022-09-23T20:08:45.164Z,15.50
2022-09-23T20:11:14.109Z,15.45
2022-09-23T20:13:43.817Z,15.41
2022-09-23T20:16:13.304Z,15.40
2022-09-23T20:18:40.590Z,15.39
2022-09-23T20:21:10.670Z,15.42
2022-09-23T20:23:37.769Z,15.43
2022-09-23T20:26:26.221Z,15.43
2022-09-23T20:28:52.953Z,15.45
2022-09-23T20:31:21.875Z,15.47
2022-09-23T20:33:52.173Z,15.43
2022-09-23T20:36:18.922Z,15.43
2022-09-23T20:38:45.321Z,15.41
2022-09-23T20:41:11.857Z,15.42
2022-09-23T20:43:38.617Z,15.41
2022-09-23T20:46:05.362Z,15.42
2022-09-23T20:48:32.124Z,15.42
2022-09-23T20:51:05.794Z,15.43
2022-09-23T20:53:32.543Z,15.41
2022-09-23T20:55:59.686Z,15.41
2022-09-23T20:58:29.164Z,15.38
2022-09-23T21:01:12.990Z,15.35
2022-09-23T21:03:42.158Z,15.34
2022-09-23T21:06:10.363Z,15.31
2022-09-23T21:08:37.668Z,15.28
2022-09-23T21:11:06.240Z,15.27
2022-09-23T21:13:33.489Z,15.29
2022-09-23T21:16:08.175Z,15.25
2022-09-23T21:18:37.882Z,15.23
2022-09-23T21:21:06.196Z,15.16
2022-09-23T21:23:34.624Z,15.14
2022-09-23T21:26:03.606Z,15.13
2022-09-23T21:28:37.710Z,15.08
2022-09-23T21:31:07.595Z,15.07
2022-09-23T21:33:37.274Z,15.04
2022-09-23T21:36:07.273Z,15.02
2022-09-23T21:38:35.675Z,14.99
2022-09-23T21:41:07.397Z,14.96
2022-09-23T21:43:35.927Z,14.95
2022-09-23T21:46:07.570Z,14.94
2022-09-23T21:48:41.146Z,14.95
2022-09-23T21:51:40.182Z,14.97
2022-09-23T21:54:11.917Z,14.98
2022-09-23T21:56:38.274Z,14.96
2022-09-23T21:59:05.510Z,14.96
2022-09-23T22:01:36.372Z,14.97
2022-09-23T22:04:08.217Z,14.98
2022-09-23T22:06:37.938Z,14.97
2022-09-23T22:09:10.235Z,14.98
2022-09-23T22:11:56.709Z,14.98
2022-09-23T22:14:25.710Z,14.98
2022-09-23T22:16:57.309Z,14.97
2022-09-23T22:19:32.673Z,14.96
2022-09-23T22:21:59.118Z,14.96
2022-09-23T22:24:25.477Z,14.97
2022-09-23T22:26:51.901Z,14.97
2022-09-23T22:29:36.985Z,14.99
2022-09-23T22:32:27.363Z,15.01
2022-09-23T22:34:53.823Z,14.99
2022-09-23T22:37:26.201Z,14.99
2022-09-23T22:39:52.810Z,14.98
2022-09-23T22:42:21.730Z,14.95
2022-09-23T22:44:48.658Z,14.95
2022-09-23T22:47:15.489Z,14.94
2022-09-23T22:49:42.786Z,14.95
2022-09-23T22:52:11.104Z,14.96
2022-09-23T22:54:37.818Z,14.99
2022-09-23T22:57:05.324Z,14.97
2022-09-23T22:59:32.030Z,14.97
2022-09-23T23:02:02.826Z,14.97
2022-09-23T23:04:30.088Z,14.96
2022-09-23T23:06:58.543Z,14.96
2022-09-23T23:09:25.347Z,14.97
2022-09-23T23:11:51.777Z,14.99
2022-09-23T23:14:18.768Z,15.01
2022-09-23T23:16:45.931Z,15.00
2022-09-23T23:19:16.422Z,15.02
2022-09-23T23:21:43.569Z,15.04
2022-09-23T23:24:15.470Z,15.04
2022-09-23T23:26:42.497Z,15.02
2022-09-23T23:29:11.166Z,15.02
2022-09-23T23:31:37.988Z,15.02
2022-09-23T23:34:04.849Z,15.00
2022-09-23T23:36:31.257Z,14.97
2022-09-23T23:38:57.631Z,14.98
2022-09-23T23:41:24.002Z,14.98
2022-09-23T23:43:55.215Z,15.00
2022-09-23T23:46:27.545Z,15.00
2022-09-23T23:48:55.374Z,15.01
2022-09-23T23:51:22.837Z,15.03
2022-09-23T23:53:49.236Z,15.05
2022-09-23T23:56:18.571Z,15.04
2022-09-23T23:58:45.293Z,15.02
